Time;durP1;ratioP1;P1;durP2;ratioP2;P2;SDS_P1;SDS_P2;PMS_P1;PMS_P2;Temp;Humidity;BMP_temperature;BMP_pressure;BME280_temperature;BME280_humidity;BME280_pressure;Samples;Min_cycle;Max_cycle;Signal;HPM_P1;HPM_P2
2022/05/11 00:00:49;;;;;;;8.35;6.32;;;;;;;17.54;nan;101455.44;5063184;28;20037;-48
2022/05/11 00:03:15;;;;;;;8.95;6.60;;;;;;;17.49;nan;101458.16;5061959;28;20628;-48
2022/05/11 00:05:41;;;;;;;11.43;7.22;;;;;;;17.51;nan;101464.94;5064524;28;20487;-49
2022/05/11 00:08:07;;;;;;;8.63;6.38;;;;;;;17.52;nan;101471.16;5061223;28;20025;-47
2022/05/11 00:10:33;;;;;;;9.80;5.97;;;;;;;17.46;nan;101464.16;5058453;28;20035;-47
2022/05/11 00:12:59;;;;;;;8.13;6.00;;;;;;;17.44;nan;101469.03;5060733;28;20421;-47
2022/05/11 00:15:25;;;;;;;10.20;6.72;;;;;;;17.42;nan;101466.59;5060293;28;20093;-47
2022/05/11 00:17:51;;;;;;;8.93;6.22;;;;;;;17.45;nan;101460.63;5063078;28;20020;-50
2022/05/11 00:20:18;;;;;;;7.40;5.72;;;;;;;17.49;nan;101460.88;5063299;28;20031;-47
2022/05/11 00:22:44;;;;;;;8.05;6.20;;;;;;;17.50;nan;101451.66;5064114;28;20501;-50
2022/05/11 00:25:12;;;;;;;6.78;5.38;;;;;;;17.50;nan;101448.94;5056960;28;20025;-49
2022/05/11 00:27:38;;;;;;;7.88;5.20;;;;;;;17.48;nan;101456.56;5061555;28;20435;-49
2022/05/11 00:30:05;;;;;;;7.65;5.50;;;;;;;17.49;nan;101458.16;5060489;28;20042;-47
2022/05/11 00:32:31;;;;;;;7.07;5.70;;;;;;;17.51;nan;101464.13;5059864;28;20534;-47
2022/05/11 00:34:56;;;;;;;8.85;5.38;;;;;;;17.51;nan;101458.69;5067305;28;20024;-50
2022/05/11 00:37:23;;;;;;;5.90;4.65;;;;;;;17.51;nan;101454.09;5063874;28;20039;-47
2022/05/11 00:39:49;;;;;;;10.35;5.95;;;;;;;17.51;nan;101442.44;5059646;28;20032;-48
2022/05/11 00:42:15;;;;;;;7.50;5.32;;;;;;;17.53;nan;101440.25;5059654;28;20029;-47
2022/05/11 00:44:42;;;;;;;6.28;4.88;;;;;;;17.53;nan;101440.25;5055852;28;20059;-51
2022/05/11 00:47:18;;;;;;;8.73;5.50;;;;;;;17.53;nan;101424.00;5056785;28;20106;-49
2022/05/11 00:49:51;;;;;;;8.55;4.93;;;;;;;17.50;nan;101424.56;5053371;28;20032;-50
2022/05/11 00:52:50;;;;;;;11.75;4.82;;;;;;;17.45;nan;101416.47;5058339;28;20025;-48
2022/05/11 00:55:37;;;;;;;8.80;4.57;;;;;;;17.52;nan;101411.56;5061230;28;20085;-48
2022/05/11 00:58:50;;;;;;;5.20;4.57;;;;;;;17.43;nan;101413.22;5054600;28;20024;-47
2022/05/11 01:01:16;;;;;;;6.07;3.85;;;;;;;17.50;nan;101409.13;4993084;28;20069;-47
2022/05/11 01:03:52;;;;;;;7.38;4.30;;;;;;;17.50;nan;101402.91;5050031;28;20086;-48
2022/05/11 01:06:19;;;;;;;4.78;3.60;;;;;;;17.50;nan;101398.28;5062904;28;20029;-51
2022/05/11 01:08:44;;;;;;;5.88;3.65;;;;;;;17.49;nan;101395.84;5063296;28;20028;-47
2022/05/11 01:11:11;;;;;;;5.18;3.90;;;;;;;17.47;nan;101388.00;5062230;28;20020;-48
2022/05/11 01:13:39;;;;;;;9.27;3.60;;;;;;;17.45;nan;101383.97;5063611;28;20032;-46
2022/05/11 01:16:05;;;;;;;5.45;3.88;;;;;;;17.44;nan;101375.03;5062233;28;20033;-47
2022/05/11 01:18:32;;;;;;;4.50;3.83;;;;;;;17.41;nan;101361.22;5064830;28;20040;-50
2022/05/11 01:20:58;;;;;;;21.75;5.25;;;;;;;17.36;nan;101363.94;5062638;28;20067;-49
2022/05/11 01:23:38;;;;;;;18.77;4.85;;;;;;;17.31;nan;101374.81;5060979;28;20095;-49
2022/05/11 01:26:06;;;;;;;20.05;4.90;;;;;;;17.26;nan;101382.97;5060883;28;20573;-49
2022/05/11 01:28:41;;;;;;;11.02;3.65;;;;;;;17.20;nan;101372.13;5062005;28;20043;-47
2022/05/11 01:31:10;;;;;;;8.30;3.78;;;;;;;17.19;nan;101365.09;5060147;28;20024;-50
2022/05/11 01:33:39;;;;;;;7.07;4.30;;;;;;;17.19;nan;101365.09;5063541;28;20071;-49
2022/05/11 01:36:27;;;;;;;5.88;4.53;;;;;;;17.14;nan;101361.63;5063853;28;20028;-47
2022/05/11 01:38:57;;;;;;;6.28;4.25;;;;;;;17.09;nan;101354.31;5059478;28;20068;-49
2022/05/11 01:41:33;;;;;;;4.95;4.22;;;;;;;17.04;nan;101362.44;5063585;28;20108;-52
2022/05/11 01:44:01;;;;;;;7.28;4.15;;;;;;;16.97;nan;101356.53;5060859;28;20021;-50
2022/05/11 01:46:27;;;;;;;6.15;4.38;;;;;;;16.94;nan;101351.66;5064392;28;20754;-46
2022/05/11 01:48:53;;;;;;;6.18;3.97;;;;;;;16.89;nan;101349.78;5064090;28;20106;-47
2022/05/11 01:51:20;;;;;;;6.80;4.03;;;;;;;16.89;nan;101346.28;5062273;28;20020;-50
2022/05/11 01:53:47;;;;;;;12.13;4.60;;;;;;;16.84;nan;101341.66;5061194;28;20020;-48
2022/05/11 01:56:19;;;;;;;16.67;4.78;;;;;;;16.84;nan;101352.50;5063040;28;20077;-46
2022/05/11 01:58:45;;;;;;;6.75;3.90;;;;;;;16.84;nan;101346.28;5061783;28;20029;-46
2022/05/11 02:01:11;;;;;;;7.60;3.75;;;;;;;16.82;nan;101351.97;5062634;28;20493;-47
2022/05/11 02:03:37;;;;;;;7.53;4.07;;;;;;;16.78;nan;101337.38;5060630;28;20117;-47
2022/05/11 02:08:47;;;;;;;9.50;4.05;;;;;;;16.78;nan;101331.97;5061712;28;20071;-48
2022/05/11 02:11:14;;;;;;;5.57;4.03;;;;;;;16.82;nan;101337.63;5065616;28;20028;-47
2022/05/11 02:13:40;;;;;;;6.07;3.92;;;;;;;16.84;nan;101338.97;5060731;28;20023;-47
2022/05/11 02:16:06;;;;;;;6.15;3.75;;;;;;;16.81;nan;101320.56;5059316;28;20027;-46
2022/05/11 02:18:31;;;;;;;5.22;4.20;;;;;;;16.78;nan;101325.72;5061974;28;20020;-47
2022/05/11 02:20:58;;;;;;;8.02;4.20;;;;;;;16.75;nan;101331.69;5059991;28;20515;-47
2022/05/11 02:23:25;;;;;;;5.45;3.72;;;;;;;16.71;nan;101327.94;5060188;28;20025;-47
2022/05/11 02:25:51;;;;;;;6.47;4.40;;;;;;;16.69;nan;101322.75;5062210;28;20201;-46
2022/05/11 02:28:18;;;;;;;5.95;3.55;;;;;;;16.67;nan;101314.13;5064613;28;20017;-47
2022/05/11 02:30:45;;;;;;;9.77;4.38;;;;;;;16.67;nan;101307.91;5065829;28;20048;-47
2022/05/11 02:33:12;;;;;;;5.40;4.15;;;;;;;16.66;nan;101306.25;5066281;28;20378;-47
2022/05/11 02:35:39;;;;;;;5.53;4.03;;;;;;;16.64;nan;101301.13;5065930;28;20036;-46
2022/05/11 02:38:09;;;;;;;5.68;4.35;;;;;;;16.60;nan;101300.84;5063850;28;20117;-47
2022/05/11 02:40:37;;;;;;;6.32;4.18;;;;;;;16.53;nan;101289.53;5065417;28;20490;-46
2022/05/11 02:43:04;;;;;;;6.65;4.82;;;;;;;16.42;nan;101282.50;5066526;28;20394;-47
2022/05/11 02:45:32;;;;;;;7.82;5.10;;;;;;;16.30;nan;101288.19;5061945;28;20418;-47
2022/05/11 02:47:58;;;;;;;10.18;5.35;;;;;;;16.24;nan;101294.72;5061712;28;20032;-47
2022/05/11 02:50:30;;;;;;;8.50;5.22;;;;;;;16.22;nan;101285.25;5061782;28;20099;-47
2022/05/11 02:52:56;;;;;;;6.15;4.55;;;;;;;16.24;nan;101300.13;5060781;28;20398;-49
2022/05/11 02:55:21;;;;;;;7.78;5.07;;;;;;;16.21;nan;101307.97;5060336;28;20028;-47
2022/05/11 02:57:47;;;;;;;6.95;5.20;;;;;;;16.18;nan;101314.72;5062815;28;20089;-46
2022/05/11 03:00:16;;;;;;;6.13;5.40;;;;;;;16.18;nan;101313.91;5060619;28;21759;-46
2022/05/11 03:02:43;;;;;;;6.32;4.93;;;;;;;16.17;nan;101307.69;5064660;28;20032;-46
2022/05/11 03:05:11;;;;;;;7.07;4.50;;;;;;;16.14;nan;101304.72;5061199;28;20126;-46
2022/05/11 03:07:37;;;;;;;6.43;4.85;;;;;;;16.16;nan;101310.69;5065502;28;20382;-46
2022/05/11 03:10:03;;;;;;;6.43;5.10;;;;;;;16.15;nan;101312.53;5064501;28;20496;-46
2022/05/11 03:12:31;;;;;;;8.38;4.88;;;;;;;16.18;nan;101316.63;5064397;28;20029;-47
2022/05/11 03:14:57;;;;;;;7.22;5.55;;;;;;;16.19;nan;101320.94;5063043;28;20490;-46
2022/05/11 03:17:23;;;;;;;7.28;5.20;;;;;;;16.18;nan;101309.31;5066255;28;20036;-46
2022/05/11 03:19:49;;;;;;;8.85;5.60;;;;;;;16.21;nan;101311.47;5064793;28;20032;-47
2022/05/11 03:22:14;;;;;;;7.43;5.82;;;;;;;16.24;nan;101310.94;5062128;28;20478;-46
2022/05/11 03:24:40;;;;;;;5.90;5.28;;;;;;;16.23;nan;101309.31;5063506;28;20027;-46
2022/05/11 03:27:06;;;;;;;6.35;4.82;;;;;;;16.19;nan;101318.25;5059495;28;20013;-47
2022/05/11 03:29:33;;;;;;;7.25;5.40;;;;;;;16.17;nan;101317.72;5070448;28;20088;-49
2022/05/11 03:34:44;;;;;;;7.32;5.32;;;;;;;16.12;nan;101320.38;5067714;28;20035;-46
2022/05/11 03:37:15;;;;;;;8.65;5.32;;;;;;;16.09;nan;101331.75;5062420;28;20020;-47
2022/05/11 03:39:41;;;;;;;9.32;5.53;;;;;;;16.10;nan;101330.66;5058154;28;20439;-46
2022/05/11 03:42:11;;;;;;;7.15;5.82;;;;;;;16.02;nan;101334.72;5058895;28;20217;-46
2022/05/11 03:44:37;;;;;;;8.35;5.40;;;;;;;16.03;nan;101336.34;5065648;28;20569;-46
2022/05/11 03:47:02;;;;;;;6.50;5.53;;;;;;;15.94;nan;101333.34;5062829;28;20028;-46
2022/05/11 03:49:28;;;;;;;9.55;5.32;;;;;;;15.92;nan;101340.94;5065370;28;20512;-46
2022/05/11 03:51:54;;;;;;;11.70;5.47;;;;;;;15.83;nan;101358.78;5063351;28;20035;-46
2022/05/11 03:54:19;;;;;;;7.65;5.65;;;;;;;15.67;nan;101363.34;5062438;28;20432;-46
2022/05/11 03:56:45;;;;;;;9.73;5.65;;;;;;;15.55;nan;101362.72;5064165;28;20028;-46
2022/05/11 03:59:10;;;;;;;9.23;5.65;;;;;;;15.60;nan;101367.34;5064642;28;20500;-45
2022/05/11 04:01:37;;;;;;;7.65;5.13;;;;;;;15.63;nan;101372.25;5060112;28;20032;-45
2022/05/11 04:04:02;;;;;;;7.05;4.63;;;;;;;15.55;nan;101372.72;5064215;28;20497;-45
2022/05/11 04:06:29;;;;;;;8.15;5.30;;;;;;;15.46;nan;101385.13;5062587;28;20029;-45
2022/05/11 04:08:55;;;;;;;7.38;4.97;;;;;;;15.49;nan;101382.69;5063512;28;20025;-46
2022/05/11 04:11:22;;;;;;;8.40;5.22;;;;;;;15.53;nan;101385.66;5067664;28;20385;-45
2022/05/11 04:13:51;;;;;;;11.27;5.57;;;;;;;15.53;nan;101386.47;5062919;28;20032;-45
2022/05/11 04:16:18;;;;;;;9.90;6.00;;;;;;;15.56;nan;101385.94;5057798;28;20024;-45
2022/05/11 04:18:44;;;;;;;7.28;5.15;;;;;;;15.64;nan;101387.38;5067416;28;20519;-45
2022/05/11 04:21:10;;;;;;;10.15;5.93;;;;;;;15.68;nan;101386.56;5064329;28;20160;-45
2022/05/11 04:23:36;;;;;;;8.25;6.47;;;;;;;15.73;nan;101391.16;5056632;28;20024;-45
2022/05/11 04:26:02;;;;;;;9.23;6.55;;;;;;;15.75;nan;101389.00;5058908;28;20032;-46
2022/05/11 04:28:30;;;;;;;9.82;6.20;;;;;;;15.80;nan;101399.84;5059990;28;20025;-45
2022/05/11 04:31:03;;;;;;;9.25;6.35;;;;;;;15.78;nan;101391.16;5064401;28;20410;-45
2022/05/11 04:33:29;;;;;;;9.45;6.22;;;;;;;15.84;nan;101398.22;5062020;28;20044;-46
2022/05/11 04:35:55;;;;;;;7.20;5.82;;;;;;;15.87;nan;101402.28;5064785;28;20543;-45
2022/05/11 04:38:21;;;;;;;8.10;6.32;;;;;;;15.88;nan;101393.91;5061858;28;20028;-46
2022/05/11 04:40:46;;;;;;;6.72;5.95;;;;;;;15.91;nan;101384.44;5066145;28;20111;-45
2022/05/11 04:43:12;;;;;;;8.23;5.95;;;;;;;15.90;nan;101383.63;5063204;28;20107;-45
2022/05/11 04:45:43;;;;;;;9.20;6.50;;;;;;;15.87;nan;101384.16;5064339;28;20143;-45
2022/05/11 04:48:10;;;;;;;9.43;5.93;;;;;;;15.87;nan;101391.47;5059679;28;20046;-45
2022/05/11 04:50:39;;;;;;;10.10;6.38;;;;;;;15.85;nan;101390.94;5057953;28;20039;-47
2022/05/11 04:53:05;;;;;;;8.30;6.10;;;;;;;15.85;nan;101397.13;5060724;28;20025;-45
2022/05/11 04:55:31;;;;;;;10.10;6.75;;;;;;;15.86;nan;101393.34;5061928;28;20029;-45
2022/05/11 04:57:56;;;;;;;9.10;6.15;;;;;;;15.89;nan;101395.53;5065499;28;20016;-45
2022/05/11 05:00:22;;;;;;;7.63;6.20;;;;;;;15.88;nan;101395.78;5058290;28;20040;-47
2022/05/11 05:02:48;;;;;;;8.45;5.95;;;;;;;15.85;nan;101405.25;5060304;28;20047;-45
2022/05/11 05:05:13;;;;;;;11.57;7.00;;;;;;;15.85;nan;101396.31;5060777;28;20025;-45
2022/05/11 05:07:41;;;;;;;8.75;6.22;;;;;;;15.79;nan;101392.78;5064853;28;20390;-45
2022/05/11 05:10:09;;;;;;;9.88;6.70;;;;;;;15.75;nan;101394.41;5066315;28;20083;-45
2022/05/11 05:12:36;;;;;;;11.00;7.03;;;;;;;15.72;nan;101392.25;5064010;28;20445;-48
2022/05/11 05:15:02;;;;;;;12.63;7.05;;;;;;;15.68;nan;101389.25;5061791;28;20100;-46
2022/05/11 05:17:27;;;;;;;9.57;7.03;;;;;;;15.63;nan;101393.84;5063511;28;20012;-47
2022/05/11 05:19:53;;;;;;;10.13;7.35;;;;;;;15.57;nan;101397.56;5062097;28;20032;-46
2022/05/11 05:22:19;;;;;;;9.45;6.82;;;;;;;15.52;nan;101411.88;5061921;28;20031;-45
2022/05/11 05:24:45;;;;;;;11.27;6.88;;;;;;;15.55;nan;101403.22;5061711;28;20436;-45
2022/05/11 05:27:16;;;;;;;9.55;7.10;;;;;;;15.60;nan;101418.66;5056867;28;20410;-46
2022/05/11 05:32:26;;;;;;;9.13;7.45;;;;;;;15.70;nan;101410.59;5061349;28;20166;-45
2022/05/11 05:34:51;;;;;;;11.82;7.50;;;;;;;15.72;nan;101408.44;5062326;28;20123;-45
2022/05/11 05:37:18;;;;;;;11.65;8.07;;;;;;;15.74;nan;101409.00;5061934;28;20497;-46
2022/05/11 05:39:44;;;;;;;10.02;7.75;;;;;;;15.72;nan;101400.34;5055422;28;20124;-45
2022/05/11 05:42:20;;;;;;;10.82;8.15;;;;;;;15.68;nan;101393.84;5062443;28;20020;-45
2022/05/11 05:44:46;;;;;;;10.07;7.82;;;;;;;15.70;nan;101386.28;5063598;28;20088;-46
2022/05/11 05:47:13;;;;;;;10.57;7.45;;;;;;;15.72;nan;101384.13;5063320;28;20021;-45
2022/05/11 05:49:39;;;;;;;10.65;7.78;;;;;;;15.75;nan;101391.69;5062316;28;20029;-45
2022/05/11 05:52:06;;;;;;;8.85;7.88;;;;;;;15.77;nan;101386.03;5057910;28;20032;-46
2022/05/11 05:54:34;;;;;;;11.73;8.10;;;;;;;15.77;nan;101383.31;5061658;28;20033;-47
2022/05/11 05:57:00;;;;;;;10.85;7.85;;;;;;;15.76;nan;101387.09;5062808;28;20372;-46
2022/05/11 05:59:26;;;;;;;8.98;6.85;;;;;;;15.76;nan;101379.81;5061309;28;20059;-45
2022/05/11 06:01:51;;;;;;;11.85;7.80;;;;;;;15.73;nan;101374.94;5061806;28;20485;-46
2022/05/11 06:04:17;;;;;;;9.82;7.80;;;;;;;15.70;nan;101386.28;5066792;28;20058;-44
2022/05/11 06:06:42;;;;;;;10.55;7.50;;;;;;;15.70;nan;101386.28;5061969;28;20028;-45
2022/05/11 06:09:09;;;;;;;10.90;7.32;;;;;;;15.74;nan;101397.38;5061890;28;20051;-45
2022/05/11 06:11:36;;;;;;;12.10;7.47;;;;;;;15.77;nan;101397.66;5065313;28;20019;-45
2022/05/11 06:14:02;;;;;;;9.65;7.38;;;;;;;15.84;nan;101392.81;5058339;28;20043;-45
2022/05/11 06:16:27;;;;;;;11.07;7.25;;;;;;;15.91;nan;101389.84;5057567;28;20063;-45
2022/05/11 06:18:53;;;;;;;10.73;8.00;;;;;;;15.90;nan;101388.22;5067887;28;20111;-45
2022/05/11 06:21:19;;;;;;;12.52;7.72;;;;;;;15.91;nan;101387.94;5070835;28;20093;-45
2022/05/11 06:23:45;;;;;;;10.40;6.90;;;;;;;15.88;nan;101380.38;5066500;28;20747;-45
2022/05/11 06:26:11;;;;;;;10.55;7.95;;;;;;;15.87;nan;101378.75;5061267;28;20538;-44
2022/05/11 06:28:40;;;;;;;9.68;7.43;;;;;;;15.84;nan;101379.31;5068380;28;20075;-45
2022/05/11 06:31:07;;;;;;;9.48;6.90;;;;;;;15.82;nan;101372.56;5067792;28;20024;-46
2022/05/11 06:33:33;;;;;;;10.13;7.45;;;;;;;15.80;nan;101375.53;5068630;28;20031;-45
2022/05/11 06:35:59;;;;;;;8.80;7.07;;;;;;;15.81;nan;101379.84;5066577;28;20052;-45
2022/05/11 06:38:25;;;;;;;10.30;7.18;;;;;;;15.83;nan;101380.38;5063202;28;20401;-48
2022/05/11 06:40:51;;;;;;;10.25;7.22;;;;;;;15.86;nan;101382.53;5068102;28;20052;-46
2022/05/11 06:43:16;;;;;;;14.68;7.18;;;;;;;15.88;nan;101382.28;5061786;28;20604;-45
2022/05/11 06:45:42;;;;;;;9.18;7.25;;;;;;;15.90;nan;101377.41;5069035;28;20106;-47
2022/05/11 06:48:08;;;;;;;10.43;7.10;;;;;;;15.93;nan;101376.88;5061069;28;20052;-44
2022/05/11 06:50:33;;;;;;;10.38;7.20;;;;;;;15.96;nan;101373.63;5064694;28;20033;-45
2022/05/11 06:53:08;;;;;;;8.73;6.53;;;;;;;15.95;nan;101369.31;5063546;28;20500;-45
2022/05/11 06:59:20;;;;;;;9.80;7.57;;;;;;;16.03;nan;101363.38;5064565;28;20063;-46
2022/05/11 07:01:15;;;;;;;12.90;6.25;;;;;;;16.12;nan;101366.34;5065603;28;20056;-45
2022/05/11 07:03:41;;;;;;;10.63;7.47;;;;;;;16.20;nan;101365.81;5062407;28;20107;-45
2022/05/11 07:06:07;;;;;;;12.45;6.72;;;;;;;16.25;nan;101360.41;5063412;28;20024;-46
2022/05/11 07:08:38;;;;;;;9.05;7.35;;;;;;;16.28;nan;101354.44;5064888;28;20594;-45
2022/05/11 07:13:48;;;;;;;10.97;7.23;;;;;;;16.35;nan;101349.59;5065790;28;20047;-45
2022/05/11 07:16:15;;;;;;;8.80;6.68;;;;;;;16.42;nan;101352.81;5068624;28;20752;-45
2022/05/11 07:18:41;;;;;;;10.73;6.80;;;;;;;16.54;nan;101320.09;5061129;28;20556;-47
2022/05/11 07:21:07;;;;;;;7.50;6.07;;;;;;;16.68;nan;101331.16;5066208;28;20448;-46
2022/05/11 07:23:32;;;;;;;7.80;6.60;;;;;;;16.83;nan;101342.75;5063053;28;20057;-45
2022/05/11 07:25:58;;;;;;;10.23;6.38;;;;;;;16.98;nan;101341.91;5067147;28;20109;-45
2022/05/11 07:28:24;;;;;;;9.82;6.63;;;;;;;17.12;nan;101339.41;5066113;28;20343;-45
2022/05/11 07:30:50;;;;;;;10.50;7.40;;;;;;;17.15;nan;101328.03;5066446;28;20034;-46
2022/05/11 07:33:17;;;;;;;14.25;9.20;;;;;;;17.18;nan;101316.63;5061685;28;20571;-46
2022/05/11 07:35:43;;;;;;;13.57;11.40;;;;;;;17.26;nan;101312.56;5062947;28;20020;-46
2022/05/11 07:38:11;;;;;;;14.52;10.50;;;;;;;17.36;nan;101320.63;5068522;28;20939;-45
2022/05/11 07:40:37;;;;;;;11.63;9.15;;;;;;;17.48;nan;101313.78;5064355;28;20043;-48
2022/05/11 07:43:03;;;;;;;11.05;8.18;;;;;;;17.58;nan;101307.47;5063841;28;20035;-46
2022/05/11 07:45:29;;;;;;;9.75;7.45;;;;;;;17.69;nan;101305.53;5065267;28;20082;-47
2022/05/11 07:47:54;;;;;;;7.85;6.68;;;;;;;17.85;nan;101293.50;5069343;28;20429;-45
2022/05/11 07:50:20;;;;;;;9.20;6.90;;;;;;;17.98;nan;101298.28;5058196;28;20029;-46
2022/05/11 07:52:47;;;;;;;11.02;7.93;;;;;;;18.10;nan;101297.88;5058533;28;20116;-46
2022/05/11 07:55:14;;;;;;;10.52;8.05;;;;;;;18.23;nan;101289.09;5061082;28;20031;-47
2022/05/11 08:00:25;;;;;;;15.20;8.20;;;;;;;18.42;nan;101278.31;5061240;28;20035;-46
2022/05/11 08:02:52;;;;;;;12.75;9.05;;;;;;;18.54;nan;101277.94;5064234;28;20036;-47
2022/05/11 08:05:20;;;;;;;10.05;8.27;;;;;;;18.66;nan;101278.34;5063080;28;20493;-45
2022/05/11 08:07:48;;;;;;;11.75;7.90;;;;;;;18.82;nan;101270.84;5060323;28;20079;-46
2022/05/11 08:10:26;;;;;;;11.60;7.28;;;;;;;19.01;nan;101263.53;5065391;28;20028;-46
2022/05/11 08:12:53;;;;;;;9.00;6.40;;;;;;;19.22;nan;101261.38;5061996;28;20040;-49
2022/05/11 08:15:21;;;;;;;9.20;6.72;;;;;;;19.46;nan;101262.09;5063695;28;20032;-46
2022/05/11 08:17:47;;;;;;;10.23;5.95;;;;;;;19.60;nan;101260.28;5063471;28;20473;-47
2022/05/11 08:20:23;;;;;;;9.73;6.47;;;;;;;19.66;nan;101260.19;5056238;28;20036;-47
2022/05/11 08:22:49;;;;;;;7.22;6.22;;;;;;;19.71;nan;101255.47;5058504;28;21475;-46
2022/05/11 08:25:19;;;;;;;8.07;6.88;;;;;;;19.78;nan;101246.94;5059349;28;20403;-46
2022/05/11 08:27:45;;;;;;;9.75;6.95;;;;;;;19.96;nan;101256.97;5067095;28;20025;-46
2022/05/11 08:35:41;;;;;;;9.88;7.60;;;;;;;20.48;nan;101235.91;5063922;28;20050;-47
2022/05/11 08:38:07;;;;;;;10.20;6.70;;;;;;;20.63;nan;101237.50;5057732;28;20017;-47
2022/05/11 08:40:46;;;;;;;8.20;5.93;;;;;;;20.72;nan;101239.22;5061065;28;20025;-47
2022/05/11 08:43:17;;;;;;;6.32;5.40;;;;;;;20.63;nan;101227.41;5060485;28;20052;-47
2022/05/11 08:45:50;;;;;;;7.15;5.50;;;;;;;20.51;nan;101232.56;5062655;28;20635;-47
2022/05/11 08:48:53;;;;;;;6.68;5.43;;;;;;;20.37;nan;101229.00;5064903;28;20024;-46
2022/05/11 08:51:40;;;;;;;6.57;5.53;;;;;;;20.31;nan;101224.78;5057955;28;20032;-47
2022/05/11 08:54:18;;;;;;;6.32;5.50;;;;;;;20.36;nan;101225.47;5061165;28;20194;-46
2022/05/11 08:56:44;;;;;;;6.20;5.60;;;;;;;20.46;nan;101221.78;5067739;28;20063;-47
2022/05/11 08:59:23;;;;;;;6.65;5.15;;;;;;;20.61;nan;101210.56;5066606;28;20028;-46
2022/05/11 09:01:54;;;;;;;7.88;5.03;;;;;;;20.84;nan;101207.94;5068920;28;20811;-46
2022/05/11 09:04:25;;;;;;;6.32;5.15;;;;;;;20.98;nan;101205.97;5068235;28;20395;-47
2022/05/11 09:06:51;;;;;;;7.82;5.60;;;;;;;21.08;nan;101205.75;5060624;28;20029;-47
2022/05/11 09:09:17;;;;;;;7.80;5.75;;;;;;;21.19;nan;101212.59;5064326;28;20029;-48
2022/05/11 09:11:52;;;;;;;7.25;5.30;;;;;;;21.39;nan;101206.69;5064748;28;21417;-46
2022/05/11 09:14:42;;;;;;;8.88;5.63;;;;;;;21.44;nan;101202.22;5065446;28;20024;-47
2022/05/11 09:17:29;;;;;;;9.10;5.80;;;;;;;21.56;nan;101205.19;5061351;28;20558;-46
2022/05/11 09:20:14;;;;;;;6.68;5.28;;;;;;;21.67;nan;101203.81;5064790;28;20028;-47
2022/05/11 09:22:59;;;;;;;9.38;5.78;;;;;;;21.67;nan;101209.25;5060059;28;20024;-47
2022/05/11 09:25:31;;;;;;;7.43;5.00;;;;;;;21.75;nan;101203.06;5060629;28;20414;-46
2022/05/11 09:28:20;;;;;;;9.38;6.15;;;;;;;21.77;nan;101200.84;5057752;28;20112;-47
2022/05/11 09:31:04;;;;;;;6.38;4.68;;;;;;;21.80;nan;101193.94;5060347;28;20038;-47
2022/05/11 09:33:38;;;;;;;7.27;5.30;;;;;;;21.80;nan;101205.66;5064804;28;20478;-47
2022/05/11 09:36:05;;;;;;;5.90;4.53;;;;;;;21.72;nan;101200.94;5066799;28;20278;-47
2022/05/11 09:38:35;;;;;;;6.38;4.63;;;;;;;21.76;nan;101196.50;5057180;28;20028;-47
2022/05/11 09:41:01;;;;;;;5.03;4.53;;;;;;;21.73;nan;101205.31;5064798;28;20039;-47
2022/05/11 09:43:29;;;;;;;9.82;5.00;;;;;;;21.77;nan;101198.13;5058784;28;20032;-48
2022/05/11 09:45:55;;;;;;;7.05;4.80;;;;;;;21.91;nan;101192.56;5060655;28;20035;-46
2022/05/11 09:48:31;;;;;;;8.32;5.07;;;;;;;22.07;nan;101193.78;5058075;28;20050;-47
2022/05/11 09:51:22;;;;;;;7.57;4.65;;;;;;;22.11;nan;101189.34;5058252;28;20623;-47
2022/05/11 09:54:28;;;;;;;8.13;5.15;;;;;;;22.23;nan;101185.97;5055065;28;20067;-47
2022/05/11 09:57:05;;;;;;;5.40;4.70;;;;;;;22.44;nan;101181.56;5061769;28;20115;-47
2022/05/11 09:59:37;;;;;;;5.20;4.25;;;;;;;22.56;nan;101180.94;5062473;28;20040;-47
2022/05/11 10:02:27;;;;;;;5.88;4.38;;;;;;;22.60;nan;101171.78;5063055;28;20032;-48
2022/05/11 10:05:06;;;;;;;6.90;4.75;;;;;;;22.75;nan;101170.53;5063861;28;20120;-47
2022/05/11 10:07:47;;;;;;;9.27;4.70;;;;;;;22.90;nan;101166.56;5057302;28;20376;-47
2022/05/11 10:10:36;;;;;;;8.02;4.57;;;;;;;22.92;nan;101164.31;5065719;28;20037;-48
2022/05/11 10:13:23;;;;;;;5.03;4.47;;;;;;;23.11;nan;101155.78;5065368;28;20070;-46
2022/05/11 10:21:53;;;;;;;7.25;5.38;;;;;;;23.32;nan;101140.31;5067333;28;20174;-47
2022/05/11 10:24:21;;;;;;;7.20;5.50;;;;;;;23.30;nan;101130.84;5062129;28;20036;-47
2022/05/11 10:27:15;;;;;;;5.93;5.03;;;;;;;23.12;nan;101124.59;5062443;28;20029;-47
2022/05/11 10:29:53;;;;;;;6.80;5.43;;;;;;;23.04;nan;101119.97;5063398;28;20039;-47
2022/05/11 10:32:27;;;;;;;8.38;5.30;;;;;;;23.10;nan;101116.72;5051784;28;20108;-47
2022/05/11 10:35:17;;;;;;;8.27;5.30;;;;;;;23.23;nan;101116.88;5056634;28;20181;-46
2022/05/11 10:38:01;;;;;;;6.25;5.22;;;;;;;23.16;nan;101109.97;5051576;28;20032;-47
2022/05/11 10:40:33;;;;;;;5.50;4.57;;;;;;;23.07;nan;101106.44;5058915;28;20429;-46
2022/05/11 10:43:26;;;;;;;6.57;4.88;;;;;;;22.93;nan;101103.06;5053644;28;20252;-47
2022/05/11 10:46:37;;;;;;;9.05;4.82;;;;;;;22.96;nan;101101.63;5053155;28;20166;-46
2022/05/11 10:49:12;;;;;;;5.00;4.47;;;;;;;23.19;nan;101095.66;5063482;28;20028;-46
2022/05/11 10:52:02;;;;;;;4.82;4.18;;;;;;;23.28;nan;101090.16;5059511;28;20029;-46
2022/05/11 10:54:34;;;;;;;4.10;3.38;;;;;;;23.29;nan;101090.97;5060682;28;20243;-46
2022/05/11 10:57:06;;;;;;;8.32;5.18;;;;;;;23.42;nan;101079.03;5058739;28;20060;-46
2022/05/11 11:00:06;;;;;;;8.52;5.03;;;;;;;23.64;nan;101078.03;5061619;28;20094;-46
2022/05/11 11:02:53;;;;;;;6.38;4.60;;;;;;;24.04;nan;101084.75;5060838;28;20033;-47
2022/05/11 11:07:11;;;;;;;6.22;4.93;;;;;;;24.27;nan;101062.56;5054878;28;20570;-47
2022/05/11 11:09:00;;;;;;;6.85;4.80;;;;;;;24.51;nan;101061.94;5056851;28;20041;-47
2022/05/11 11:11:33;;;;;;;6.15;5.22;;;;;;;24.47;nan;101053.59;5062648;28;20032;-46
2022/05/11 11:14:05;;;;;;;6.18;4.82;;;;;;;24.57;nan;101041.41;5064133;28;20556;-47
2022/05/11 11:16:35;;;;;;;9.40;5.57;;;;;;;24.68;nan;101045.34;5062743;28;20115;-47
2022/05/11 11:19:03;;;;;;;5.78;5.00;;;;;;;24.88;nan;101033.53;5060896;28;20034;-46
2022/05/11 11:21:29;;;;;;;12.85;6.03;;;;;;;25.04;nan;101038.44;5062707;28;20028;-47
2022/05/11 11:24:26;;;;;;;6.75;5.25;;;;;;;25.00;nan;101028.16;5056366;28;20027;-47
2022/05/11 11:27:02;;;;;;;8.32;4.78;;;;;;;25.27;nan;101023.16;5060690;28;20032;-46
2022/05/11 11:29:31;;;;;;;6.45;5.80;;;;;;;25.55;nan;101021.38;5056991;28;20611;-47
2022/05/11 11:32:04;;;;;;;6.55;5.85;;;;;;;25.63;nan;101010.63;5060065;28;20079;-47
2022/05/11 11:34:32;;;;;;;6.78;5.15;;;;;;;25.88;nan;101006.75;5065114;28;20033;-47
2022/05/11 11:37:19;;;;;;;6.10;4.97;;;;;;;26.19;nan;101012.41;5060765;28;20024;-46
2022/05/11 11:39:44;;;;;;;5.55;5.05;;;;;;;26.33;nan;100994.75;5058770;28;20048;-47
2022/05/11 11:42:10;;;;;;;7.18;5.40;;;;;;;26.24;nan;100983.13;5057953;28;20024;-46
2022/05/11 11:44:43;;;;;;;7.05;4.85;;;;;;;26.28;nan;100981.28;5059872;28;20410;-46
2022/05/11 11:47:27;;;;;;;9.82;5.57;;;;;;;26.70;nan;100965.19;5057234;28;20092;-46
2022/05/11 11:49:57;;;;;;;7.38;5.28;;;;;;;27.00;nan;100971.13;5061339;28;20040;-47
2022/05/11 11:52:46;;;;;;;6.85;6.13;;;;;;;26.93;nan;100965.41;5059334;28;20115;-46
2022/05/11 11:55:18;;;;;;;6.38;5.00;;;;;;;26.91;nan;100964.94;5059582;28;20025;-47
2022/05/11 11:57:44;;;;;;;6.13;5.55;;;;;;;27.00;nan;100951.88;5059886;28;20393;-47
2022/05/11 12:00:45;;;;;;;44.75;8.05;;;;;;;26.89;nan;100950.75;5057265;28;20036;-47
2022/05/11 12:03:22;;;;;;;7.70;5.13;;;;;;;27.01;nan;100956.22;5027520;28;20052;-46
2022/05/11 12:05:55;;;;;;;8.00;4.97;;;;;;;27.13;nan;100939.66;5059798;28;20710;-47
2022/05/11 12:17:00;;;;;;;10.10;5.63;;;;;;;26.63;nan;100930.09;5058987;28;20452;-46
2022/05/11 12:19:29;;;;;;;9.88;6.43;;;;;;;26.89;nan;100921.31;5059599;28;20090;-46
2022/05/11 12:22:01;;;;;;;9.20;6.40;;;;;;;27.19;nan;100924.47;5060385;28;20028;-46
2022/05/11 12:24:39;;;;;;;5.47;4.85;;;;;;;27.66;nan;100916.16;5061212;28;20021;-46
2022/05/11 12:27:12;;;;;;;8.95;6.63;;;;;;;28.03;nan;100902.00;5056571;28;20020;-47
2022/05/11 12:29:55;;;;;;;7.32;5.00;;;;;;;28.21;nan;100900.38;5057859;28;20028;-47
2022/05/11 12:32:25;;;;;;;8.00;5.85;;;;;;;28.23;nan;100897.28;5062224;28;20442;-47